KPWA/PWA METAR and TAF weather

Enter ICAO airport designator
Station Type Date Time Source
KPWA METAR 2022/11/27 07:53 UTC NOAA

KPWA 270753Z AUTO 31009KT 10SM FEW007 SCT015 OVC021 07/05 A2968 RMK AO2 SLP050 T00720050


Station Type Date Time Source
KPWA Decoded METAR 2022/11/27 07:53 UTC NOAA

WILEY POST, OK, United States (KPWA) 35-32N 97-39W 397M
Nov 27, 2022 - 02:53 AM EST / 2022.11.27 0753 UTC
Wind: from the NW (310 degrees) at 10 MPH (9 KT):0
Visibility: 10 mile(s):0
Sky conditions: overcast
Temperature: 45.0 F (7.2 C)
Dew Point: 41.0 F (5.0 C)
Relative Humidity: 85%
Pressure (altimeter): 29.68 in. Hg (1005 hPa)
ob: KPWA 270753Z AUTO 31009KT 10SM FEW007 SCT015 OVC021 07/05 A2968 RMK AO2 SLP050 T00720050
cycle: 8

Station Type Date Time Source
KPWA TAF UTC NOAA

Error!

Example: see airport list